sensor_id;sensor_type;location;lat;lon;timestamp;P1;durP1;ratioP1;P2;durP2;ratioP2
16403;SDS011;8311;50.158;8.642;2022-12-01T00:00:28;0.80;;;0.80;;
16403;SDS011;8311;50.158;8.642;2022-12-01T00:03:21;0.98;;;0.82;;
16403;SDS011;8311;50.158;8.642;2022-12-01T00:06:15;1.00;;;0.90;;
16403;SDS011;8311;50.158;8.642;2022-12-01T00:09:10;1.55;;;1.10;;
16403;SDS011;8311;50.158;8.642;2022-12-01T00:12:21;1.15;;;1.05;;
16403;SDS011;8311;50.158;8.642;2022-12-01T00:15:15;1.02;;;0.82;;
16403;SDS011;8311;50.158;8.642;2022-12-01T00:18:09;1.10;;;0.93;;
16403;SDS011;8311;50.158;8.642;2022-12-01T00:21:02;1.70;;;1.20;;
16403;SDS011;8311;50.158;8.642;2022-12-01T00:23:55;1.80;;;1.20;;
16403;SDS011;8311;50.158;8.642;2022-12-01T00:26:49;1.15;;;0.88;;
16403;SDS011;8311;50.158;8.642;2022-12-01T00:29:42;1.30;;;1.10;;
16403;SDS011;8311;50.158;8.642;2022-12-01T00:32:36;1.73;;;1.10;;
16403;SDS011;8311;50.158;8.642;2022-12-01T00:35:30;1.40;;;0.93;;
16403;SDS011;8311;50.158;8.642;2022-12-01T00:38:23;1.27;;;1.10;;
16403;SDS011;8311;50.158;8.642;2022-12-01T00:41:16;1.48;;;1.30;;
16403;SDS011;8311;50.158;8.642;2022-12-01T00:44:09;1.00;;;0.90;;
16403;SDS011;8311;50.158;8.642;2022-12-01T00:47:03;1.08;;;0.82;;
16403;SDS011;8311;50.158;8.642;2022-12-01T00:49:58;1.42;;;1.10;;
16403;SDS011;8311;50.158;8.642;2022-12-01T00:52:51;1.13;;;0.93;;
16403;SDS011;8311;50.158;8.642;2022-12-01T00:55:44;1.20;;;0.90;;
16403;SDS011;8311;50.158;8.642;2022-12-01T00:58:37;0.75;;;0.75;;
16403;SDS011;8311;50.158;8.642;2022-12-01T01:01:30;1.42;;;1.00;;
16403;SDS011;8311;50.158;8.642;2022-12-01T01:04:23;1.52;;;1.20;;
16403;SDS011;8311;50.158;8.642;2022-12-01T01:07:17;1.33;;;1.08;;
16403;SDS011;8311;50.158;8.642;2022-12-01T01:10:12;1.05;;;0.80;;
16403;SDS011;8311;50.158;8.642;2022-12-01T01:13:05;1.10;;;0.90;;
16403;SDS011;8311;50.158;8.642;2022-12-01T01:16:00;1.25;;;1.00;;
16403;SDS011;8311;50.158;8.642;2022-12-01T01:18:55;1.40;;;1.10;;
16403;SDS011;8311;50.158;8.642;2022-12-01T01:21:49;1.25;;;1.05;;
16403;SDS011;8311;50.158;8.642;2022-12-01T01:24:43;2.03;;;1.08;;
16403;SDS011;8311;50.158;8.642;2022-12-01T01:27:36;1.17;;;0.90;;
16403;SDS011;8311;50.158;8.642;2022-12-01T01:30:32;1.02;;;0.80;;
16403;SDS011;8311;50.158;8.642;2022-12-01T01:33:25;1.38;;;1.08;;
16403;SDS011;8311;50.158;8.642;2022-12-01T01:36:18;0.90;;;0.80;;
16403;SDS011;8311;50.158;8.642;2022-12-01T01:39:12;1.08;;;0.90;;
16403;SDS011;8311;50.158;8.642;2022-12-01T01:42:07;1.70;;;1.20;;
16403;SDS011;8311;50.158;8.642;2022-12-01T01:45:01;1.15;;;1.05;;
16403;SDS011;8311;50.158;8.642;2022-12-01T01:47:54;0.77;;;0.77;;
16403;SDS011;8311;50.158;8.642;2022-12-01T01:50:51;1.63;;;1.13;;
16403;SDS011;8311;50.158;8.642;2022-12-01T01:53:44;1.30;;;0.85;;
16403;SDS011;8311;50.158;8.642;2022-12-01T01:56:40;2.47;;;1.00;;
16403;SDS011;8311;50.158;8.642;2022-12-01T01:59:37;1.50;;;1.10;;
16403;SDS011;8311;50.158;8.642;2022-12-01T02:02:34;1.00;;;0.88;;
16403;SDS011;8311;50.158;8.642;2022-12-01T02:05:31;1.48;;;1.20;;
16403;SDS011;8311;50.158;8.642;2022-12-01T02:08:26;1.27;;;1.13;;
16403;SDS011;8311;50.158;8.642;2022-12-01T02:11:30;2.10;;;1.15;;
16403;SDS011;8311;50.158;8.642;2022-12-01T02:15:02;1.60;;;1.20;;
16403;SDS011;8311;50.158;8.642;2022-12-01T02:18:04;2.40;;;1.25;;
16403;SDS011;8311;50.158;8.642;2022-12-01T02:21:22;1.45;;;1.10;;
16403;SDS011;8311;50.158;8.642;2022-12-01T02:28:28;1.73;;;1.10;;
16403;SDS011;8311;50.158;8.642;2022-12-01T02:31:39;1.27;;;1.10;;
16403;SDS011;8311;50.158;8.642;2022-12-01T02:34:39;1.13;;;1.00;;
16403;SDS011;8311;50.158;8.642;2022-12-01T02:37:38;2.00;;;1.10;;
16403;SDS011;8311;50.158;8.642;2022-12-01T02:40:39;0.95;;;0.90;;
16403;SDS011;8311;50.158;8.642;2022-12-01T02:43:38;1.42;;;1.13;;
16403;SDS011;8311;50.158;8.642;2022-12-01T02:46:35;2.45;;;1.23;;
16403;SDS011;8311;50.158;8.642;2022-12-01T02:49:33;1.05;;;0.95;;
16403;SDS011;8311;50.158;8.642;2022-12-01T02:52:30;1.48;;;1.13;;
16403;SDS011;8311;50.158;8.642;2022-12-01T02:55:25;1.50;;;1.00;;
16403;SDS011;8311;50.158;8.642;2022-12-01T02:58:18;1.75;;;1.30;;
16403;SDS011;8311;50.158;8.642;2022-12-01T03:01:23;2.08;;;1.17;;
16403;SDS011;8311;50.158;8.642;2022-12-01T03:04:36;1.23;;;0.90;;
16403;SDS011;8311;50.158;8.642;2022-12-01T03:07:42;1.33;;;1.08;;
16403;SDS011;8311;50.158;8.642;2022-12-01T03:10:44;1.00;;;0.90;;
16403;SDS011;8311;50.158;8.642;2022-12-01T03:13:43;1.17;;;1.00;;
16403;SDS011;8311;50.158;8.642;2022-12-01T03:16:45;1.13;;;1.00;;
16403;SDS011;8311;50.158;8.642;2022-12-01T03:19:43;1.35;;;1.20;;
16403;SDS011;8311;50.158;8.642;2022-12-01T03:22:40;1.30;;;1.00;;
16403;SDS011;8311;50.158;8.642;2022-12-01T03:25:38;1.10;;;0.95;;
16403;SDS011;8311;50.158;8.642;2022-12-01T03:28:35;1.25;;;1.08;;
16403;SDS011;8311;50.158;8.642;2022-12-01T03:31:32;1.42;;;1.00;;
16403;SDS011;8311;50.158;8.642;2022-12-01T03:34:30;1.55;;;1.27;;
16403;SDS011;8311;50.158;8.642;2022-12-01T03:37:30;1.50;;;1.17;;
16403;SDS011;8311;50.158;8.642;2022-12-01T03:40:28;1.27;;;0.90;;
16403;SDS011;8311;50.158;8.642;2022-12-01T03:43:25;1.40;;;1.10;;
16403;SDS011;8311;50.158;8.642;2022-12-01T03:46:22;1.35;;;1.02;;
16403;SDS011;8311;50.158;8.642;2022-12-01T03:49:23;1.13;;;1.02;;
16403;SDS011;8311;50.158;8.642;2022-12-01T03:52:19;1.17;;;0.90;;
16403;SDS011;8311;50.158;8.642;2022-12-01T03:55:22;1.67;;;1.20;;
16403;SDS011;8311;50.158;8.642;2022-12-01T03:58:19;1.27;;;1.00;;
16403;SDS011;8311;50.158;8.642;2022-12-01T04:01:17;1.95;;;1.50;;
16403;SDS011;8311;50.158;8.642;2022-12-01T04:04:12;1.60;;;1.20;;
16403;SDS011;8311;50.158;8.642;2022-12-01T04:07:06;1.48;;;1.15;;
16403;SDS011;8311;50.158;8.642;2022-12-01T04:10:03;1.35;;;1.10;;
16403;SDS011;8311;50.158;8.642;2022-12-01T04:12:59;1.13;;;1.02;;
16403;SDS011;8311;50.158;8.642;2022-12-01T04:15:52;1.10;;;1.00;;
16403;SDS011;8311;50.158;8.642;2022-12-01T04:18:46;2.47;;;1.30;;
16403;SDS011;8311;50.158;8.642;2022-12-01T04:21:39;1.77;;;1.17;;
16403;SDS011;8311;50.158;8.642;2022-12-01T04:24:32;1.98;;;1.40;;
16403;SDS011;8311;50.158;8.642;2022-12-01T04:27:25;1.50;;;1.10;;
16403;SDS011;8311;50.158;8.642;2022-12-01T04:30:20;1.77;;;1.20;;
16403;SDS011;8311;50.158;8.642;2022-12-01T04:33:13;1.65;;;1.02;;
16403;SDS011;8311;50.158;8.642;2022-12-01T04:36:06;1.55;;;1.20;;
16403;SDS011;8311;50.158;8.642;2022-12-01T04:39:00;1.75;;;1.20;;
16403;SDS011;8311;50.158;8.642;2022-12-01T04:41:53;1.63;;;1.23;;
16403;SDS011;8311;50.158;8.642;2022-12-01T04:44:46;1.55;;;1.10;;
16403;SDS011;8311;50.158;8.642;2022-12-01T04:47:41;1.88;;;1.27;;
16403;SDS011;8311;50.158;8.642;2022-12-01T04:50:34;1.15;;;1.05;;
16403;SDS011;8311;50.158;8.642;2022-12-01T04:53:28;1.70;;;1.20;;
16403;SDS011;8311;50.158;8.642;2022-12-01T04:56:21;2.17;;;1.30;;
16403;SDS011;8311;50.158;8.642;2022-12-01T04:59:14;1.63;;;1.17;;
16403;SDS011;8311;50.158;8.642;2022-12-01T05:02:07;1.20;;;1.10;;
16403;SDS011;8311;50.158;8.642;2022-12-01T05:05:01;1.50;;;1.30;;
16403;SDS011;8311;50.158;8.642;2022-12-01T05:07:57;1.33;;;1.00;;
16403;SDS011;8311;50.158;8.642;2022-12-01T05:10:53;1.17;;;1.05;;
16403;SDS011;8311;50.158;8.642;2022-12-01T05:13:47;1.80;;;1.00;;
16403;SDS011;8311;50.158;8.642;2022-12-01T05:16:41;1.55;;;1.10;;
16403;SDS011;8311;50.158;8.642;2022-12-01T05:19:34;1.92;;;1.38;;
16403;SDS011;8311;50.158;8.642;2022-12-01T05:22:45;1.77;;;1.30;;
16403;SDS011;8311;50.158;8.642;2022-12-01T05:25:56;1.42;;;1.10;;
16403;SDS011;8311;50.158;8.642;2022-12-01T05:28:49;1.45;;;1.20;;
16403;SDS011;8311;50.158;8.642;2022-12-01T05:31:43;1.45;;;1.10;;
16403;SDS011;8311;50.158;8.642;2022-12-01T05:34:37;1.75;;;1.10;;
16403;SDS011;8311;50.158;8.642;2022-12-01T05:37:30;1.60;;;1.13;;
16403;SDS011;8311;50.158;8.642;2022-12-01T05:40:26;1.67;;;1.30;;
16403;SDS011;8311;50.158;8.642;2022-12-01T05:43:21;1.73;;;1.25;;
16403;SDS011;8311;50.158;8.642;2022-12-01T05:46:20;1.85;;;1.33;;
16403;SDS011;8311;50.158;8.642;2022-12-01T05:49:13;1.75;;;1.30;;
16403;SDS011;8311;50.158;8.642;2022-12-01T05:52:06;2.15;;;1.40;;
16403;SDS011;8311;50.158;8.642;2022-12-01T05:54:59;1.98;;;1.20;;
16403;SDS011;8311;50.158;8.642;2022-12-01T05:57:53;1.88;;;1.13;;
16403;SDS011;8311;50.158;8.642;2022-12-01T06:00:46;2.30;;;1.50;;
16403;SDS011;8311;50.158;8.642;2022-12-01T06:03:39;1.55;;;1.25;;
16403;SDS011;8311;50.158;8.642;2022-12-01T06:06:32;1.42;;;1.05;;
16403;SDS011;8311;50.158;8.642;2022-12-01T06:09:25;2.25;;;1.40;;
16403;SDS011;8311;50.158;8.642;2022-12-01T06:12:18;2.25;;;1.50;;
16403;SDS011;8311;50.158;8.642;2022-12-01T06:15:13;1.52;;;1.20;;
16403;SDS011;8311;50.158;8.642;2022-12-01T06:18:06;1.85;;;1.33;;
16403;SDS011;8311;50.158;8.642;2022-12-01T06:20:59;2.00;;;1.50;;
16403;SDS011;8311;50.158;8.642;2022-12-01T06:23:52;1.48;;;1.10;;
16403;SDS011;8311;50.158;8.642;2022-12-01T06:26:45;1.85;;;1.25;;
16403;SDS011;8311;50.158;8.642;2022-12-01T06:29:38;1.73;;;1.40;;
16403;SDS011;8311;50.158;8.642;2022-12-01T06:32:33;2.28;;;1.50;;
16403;SDS011;8311;50.158;8.642;2022-12-01T06:35:27;2.35;;;1.48;;
16403;SDS011;8311;50.158;8.642;2022-12-01T06:38:20;1.77;;;1.30;;
16403;SDS011;8311;50.158;8.642;2022-12-01T06:41:13;2.25;;;1.45;;
16403;SDS011;8311;50.158;8.642;2022-12-01T06:44:06;1.83;;;1.20;;
16403;SDS011;8311;50.158;8.642;2022-12-01T06:46:59;2.05;;;1.23;;
16403;SDS011;8311;50.158;8.642;2022-12-01T06:49:55;1.95;;;1.40;;
16403;SDS011;8311;50.158;8.642;2022-12-01T06:52:48;1.95;;;1.20;;
16403;SDS011;8311;50.158;8.642;2022-12-01T06:55:43;1.45;;;1.05;;
16403;SDS011;8311;50.158;8.642;2022-12-01T06:58:36;2.78;;;1.58;;
16403;SDS011;8311;50.158;8.642;2022-12-01T07:01:29;1.65;;;1.23;;
16403;SDS011;8311;50.158;8.642;2022-12-01T07:04:22;1.90;;;1.40;;
16403;SDS011;8311;50.158;8.642;2022-12-01T07:07:18;2.05;;;1.50;;
16403;SDS011;8311;50.158;8.642;2022-12-01T07:10:12;1.90;;;1.30;;
16403;SDS011;8311;50.158;8.642;2022-12-01T07:13:05;2.42;;;1.55;;
16403;SDS011;8311;50.158;8.642;2022-12-01T07:15:58;2.67;;;1.60;;
16403;SDS011;8311;50.158;8.642;2022-12-01T07:18:52;2.38;;;1.30;;
16403;SDS011;8311;50.158;8.642;2022-12-01T07:21:46;2.28;;;1.40;;
16403;SDS011;8311;50.158;8.642;2022-12-01T07:24:42;1.90;;;1.48;;
16403;SDS011;8311;50.158;8.642;2022-12-01T07:27:35;2.00;;;1.42;;
16403;SDS011;8311;50.158;8.642;2022-12-01T07:30:28;2.72;;;1.73;;
16403;SDS011;8311;50.158;8.642;2022-12-01T07:33:21;3.42;;;1.80;;
16403;SDS011;8311;50.158;8.642;2022-12-01T07:36:15;2.28;;;1.48;;
16403;SDS011;8311;50.158;8.642;2022-12-01T07:39:09;2.08;;;1.50;;
16403;SDS011;8311;50.158;8.642;2022-12-01T07:42:05;2.35;;;1.67;;
16403;SDS011;8311;50.158;8.642;2022-12-01T07:44:57;2.78;;;1.90;;
16403;SDS011;8311;50.158;8.642;2022-12-01T07:47:51;1.92;;;1.52;;
16403;SDS011;8311;50.158;8.642;2022-12-01T07:50:44;2.55;;;1.60;;
16403;SDS011;8311;50.158;8.642;2022-12-01T07:53:39;2.55;;;1.75;;
16403;SDS011;8311;50.158;8.642;2022-12-01T07:56:32;1.55;;;1.30;;
16403;SDS011;8311;50.158;8.642;2022-12-01T07:59:27;3.08;;;1.67;;
16403;SDS011;8311;50.158;8.642;2022-12-01T08:02:20;1.30;;;1.10;;
16403;SDS011;8311;50.158;8.642;2022-12-01T08:05:13;2.58;;;1.70;;
16403;SDS011;8311;50.158;8.642;2022-12-01T08:08:06;2.33;;;1.70;;
16403;SDS011;8311;50.158;8.642;2022-12-01T08:11:00;3.25;;;1.70;;
16403;SDS011;8311;50.158;8.642;2022-12-01T08:13:54;2.88;;;1.50;;
16403;SDS011;8311;50.158;8.642;2022-12-01T08:16:49;2.30;;;1.63;;
16403;SDS011;8311;50.158;8.642;2022-12-01T08:19:42;2.30;;;1.75;;
16403;SDS011;8311;50.158;8.642;2022-12-01T08:22:35;2.53;;;1.65;;
16403;SDS011;8311;50.158;8.642;2022-12-01T08:25:28;2.85;;;1.80;;
16403;SDS011;8311;50.158;8.642;2022-12-01T08:28:21;2.10;;;1.50;;
16403;SDS011;8311;50.158;8.642;2022-12-01T08:31:15;2.08;;;1.50;;
16403;SDS011;8311;50.158;8.642;2022-12-01T08:34:14;1.77;;;1.35;;
16403;SDS011;8311;50.158;8.642;2022-12-01T08:37:07;1.55;;;1.33;;
16403;SDS011;8311;50.158;8.642;2022-12-01T08:40:00;3.50;;;1.60;;
16403;SDS011;8311;50.158;8.642;2022-12-01T08:42:53;1.83;;;1.50;;
16403;SDS011;8311;50.158;8.642;2022-12-01T08:45:46;2.28;;;1.63;;
16403;SDS011;8311;50.158;8.642;2022-12-01T08:48:40;1.95;;;1.55;;
16403;SDS011;8311;50.158;8.642;2022-12-01T08:51:35;2.95;;;1.63;;
16403;SDS011;8311;50.158;8.642;2022-12-01T08:54:28;2.55;;;1.38;;
16403;SDS011;8311;50.158;8.642;2022-12-01T08:57:21;2.38;;;1.52;;
16403;SDS011;8311;50.158;8.642;2022-12-01T09:00:15;2.67;;;1.70;;
16403;SDS011;8311;50.158;8.642;2022-12-01T09:03:08;2.15;;;1.50;;
16403;SDS011;8311;50.158;8.642;2022-12-01T09:06:02;2.10;;;1.42;;
16403;SDS011;8311;50.158;8.642;2022-12-01T09:08:58;2.78;;;1.65;;
16403;SDS011;8311;50.158;8.642;2022-12-01T09:11:51;2.03;;;1.38;;
16403;SDS011;8311;50.158;8.642;2022-12-01T09:14:45;1.52;;;1.40;;
16403;SDS011;8311;50.158;8.642;2022-12-01T09:17:40;2.88;;;1.75;;
16403;SDS011;8311;50.158;8.642;2022-12-01T09:20:33;3.15;;;1.70;;
16403;SDS011;8311;50.158;8.642;2022-12-01T09:23:27;3.25;;;1.95;;
16403;SDS011;8311;50.158;8.642;2022-12-01T09:26:22;2.05;;;1.48;;
16403;SDS011;8311;50.158;8.642;2022-12-01T09:29:15;1.98;;;1.42;;
16403;SDS011;8311;50.158;8.642;2022-12-01T09:32:08;2.50;;;1.58;;
16403;SDS011;8311;50.158;8.642;2022-12-01T09:35:02;1.92;;;1.30;;
16403;SDS011;8311;50.158;8.642;2022-12-01T09:37:55;2.83;;;1.58;;
16403;SDS011;8311;50.158;8.642;2022-12-01T09:40:49;2.15;;;1.33;;
16403;SDS011;8311;50.158;8.642;2022-12-01T09:43:45;2.17;;;1.40;;
16403;SDS011;8311;50.158;8.642;2022-12-01T09:46:44;2.50;;;1.52;;
16403;SDS011;8311;50.158;8.642;2022-12-01T09:49:48;1.73;;;1.30;;
16403;SDS011;8311;50.158;8.642;2022-12-01T09:52:52;2.20;;;1.58;;
16403;SDS011;8311;50.158;8.642;2022-12-01T09:55:49;2.42;;;1.67;;
16403;SDS011;8311;50.158;8.642;2022-12-01T09:58:44;2.47;;;1.52;;
16403;SDS011;8311;50.158;8.642;2022-12-01T10:01:42;2.50;;;1.60;;
16403;SDS011;8311;50.158;8.642;2022-12-01T10:04:38;2.35;;;1.42;;
16403;SDS011;8311;50.158;8.642;2022-12-01T10:07:36;1.85;;;1.30;;
16403;SDS011;8311;50.158;8.642;2022-12-01T10:10:35;2.47;;;1.67;;
16403;SDS011;8311;50.158;8.642;2022-12-01T10:13:31;2.42;;;1.60;;
16403;SDS011;8311;50.158;8.642;2022-12-01T10:16:27;2.80;;;1.65;;
16403;SDS011;8311;50.158;8.642;2022-12-01T10:19:27;2.55;;;1.58;;
16403;SDS011;8311;50.158;8.642;2022-12-01T10:25:42;2.92;;;1.58;;
16403;SDS011;8311;50.158;8.642;2022-12-01T10:28:46;2.67;;;1.67;;
16403;SDS011;8311;50.158;8.642;2022-12-01T10:31:52;2.25;;;1.50;;
16403;SDS011;8311;50.158;8.642;2022-12-01T10:34:48;2.95;;;1.60;;
16403;SDS011;8311;50.158;8.642;2022-12-01T10:37:41;2.00;;;1.27;;
16403;SDS011;8311;50.158;8.642;2022-12-01T10:40:36;2.65;;;1.58;;
16403;SDS011;8311;50.158;8.642;2022-12-01T10:43:31;2.00;;;1.45;;
16403;SDS011;8311;50.158;8.642;2022-12-01T10:46:31;2.42;;;1.45;;
16403;SDS011;8311;50.158;8.642;2022-12-01T10:49:35;1.92;;;1.50;;
16403;SDS011;8311;50.158;8.642;2022-12-01T10:52:34;1.98;;;1.60;;
16403;SDS011;8311;50.158;8.642;2022-12-01T10:55:29;2.15;;;1.40;;
16403;SDS011;8311;50.158;8.642;2022-12-01T10:58:24;1.92;;;1.30;;
16403;SDS011;8311;50.158;8.642;2022-12-01T11:01:19;2.38;;;1.50;;
16403;SDS011;8311;50.158;8.642;2022-12-01T11:04:20;2.10;;;1.40;;
16403;SDS011;8311;50.158;8.642;2022-12-01T11:07:23;1.58;;;1.17;;
16403;SDS011;8311;50.158;8.642;2022-12-01T11:10:19;1.70;;;1.25;;
16403;SDS011;8311;50.158;8.642;2022-12-01T11:13:16;2.72;;;1.33;;
16403;SDS011;8311;50.158;8.642;2022-12-01T11:16:30;1.85;;;1.40;;
16403;SDS011;8311;50.158;8.642;2022-12-01T11:19:28;2.22;;;1.48;;
16403;SDS011;8311;50.158;8.642;2022-12-01T11:22:26;2.83;;;1.50;;
16403;SDS011;8311;50.158;8.642;2022-12-01T11:25:22;1.75;;;1.30;;
16403;SDS011;8311;50.158;8.642;2022-12-01T11:28:18;2.10;;;1.40;;
16403;SDS011;8311;50.158;8.642;2022-12-01T11:31:12;2.47;;;1.40;;
16403;SDS011;8311;50.158;8.642;2022-12-01T11:34:06;2.70;;;1.55;;
16403;SDS011;8311;50.158;8.642;2022-12-01T11:37:14;2.10;;;1.35;;
16403;SDS011;8311;50.158;8.642;2022-12-01T11:40:15;2.28;;;1.40;;
16403;SDS011;8311;50.158;8.642;2022-12-01T11:43:17;1.98;;;1.60;;
16403;SDS011;8311;50.158;8.642;2022-12-01T11:46:15;1.65;;;1.20;;
16403;SDS011;8311;50.158;8.642;2022-12-01T11:49:14;2.35;;;1.60;;
16403;SDS011;8311;50.158;8.642;2022-12-01T11:52:21;2.28;;;1.42;;
16403;SDS011;8311;50.158;8.642;2022-12-01T11:55:23;2.97;;;1.65;;
16403;SDS011;8311;50.158;8.642;2022-12-01T11:58:18;2.83;;;1.75;;
16403;SDS011;8311;50.158;8.642;2022-12-01T12:01:13;2.38;;;1.40;;
16403;SDS011;8311;50.158;8.642;2022-12-01T12:04:20;2.08;;;1.48;;
16403;SDS011;8311;50.158;8.642;2022-12-01T12:07:22;2.28;;;1.48;;
16403;SDS011;8311;50.158;8.642;2022-12-01T12:10:27;2.15;;;1.45;;
16403;SDS011;8311;50.158;8.642;2022-12-01T12:13:33;2.47;;;1.65;;
16403;SDS011;8311;50.158;8.642;2022-12-01T12:16:41;1.90;;;1.38;;
16403;SDS011;8311;50.158;8.642;2022-12-01T12:19:54;1.88;;;1.50;;
16403;SDS011;8311;50.158;8.642;2022-12-01T12:23:04;2.95;;;1.65;;
16403;SDS011;8311;50.158;8.642;2022-12-01T12:26:11;2.03;;;1.38;;
16403;SDS011;8311;50.158;8.642;2022-12-01T12:29:21;2.83;;;1.67;;
16403;SDS011;8311;50.158;8.642;2022-12-01T12:32:30;2.80;;;1.63;;
16403;SDS011;8311;50.158;8.642;2022-12-01T12:35:32;2.28;;;1.42;;
16403;SDS011;8311;50.158;8.642;2022-12-01T12:38:35;2.80;;;1.60;;
16403;SDS011;8311;50.158;8.642;2022-12-01T12:41:41;1.88;;;1.38;;
16403;SDS011;8311;50.158;8.642;2022-12-01T12:44:41;2.65;;;1.30;;
16403;SDS011;8311;50.158;8.642;2022-12-01T12:47:42;2.55;;;1.63;;
16403;SDS011;8311;50.158;8.642;2022-12-01T12:50:48;2.30;;;1.42;;
16403;SDS011;8311;50.158;8.642;2022-12-01T12:53:50;1.33;;;1.20;;
16403;SDS011;8311;50.158;8.642;2022-12-01T12:56:51;2.47;;;1.55;;
16403;SDS011;8311;50.158;8.642;2022-12-01T12:59:51;3.50;;;1.83;;
16403;SDS011;8311;50.158;8.642;2022-12-01T13:02:49;3.05;;;1.65;;
16403;SDS011;8311;50.158;8.642;2022-12-01T13:05:49;2.15;;;1.52;;
16403;SDS011;8311;50.158;8.642;2022-12-01T13:08:46;2.15;;;1.38;;
16403;SDS011;8311;50.158;8.642;2022-12-01T13:11:45;2.58;;;1.50;;
16403;SDS011;8311;50.158;8.642;2022-12-01T13:14:44;2.83;;;1.67;;
16403;SDS011;8311;50.158;8.642;2022-12-01T13:17:40;1.67;;;1.58;;
16403;SDS011;8311;50.158;8.642;2022-12-01T13:20:35;2.22;;;1.38;;
16403;SDS011;8311;50.158;8.642;2022-12-01T13:23:28;2.20;;;1.63;;
16403;SDS011;8311;50.158;8.642;2022-12-01T13:26:23;1.77;;;1.35;;
16403;SDS011;8311;50.158;8.642;2022-12-01T13:29:17;1.40;;;1.30;;
16403;SDS011;8311;50.158;8.642;2022-12-01T13:32:29;2.38;;;1.65;;
16403;SDS011;8311;50.158;8.642;2022-12-01T13:35:25;2.60;;;1.60;;
16403;SDS011;8311;50.158;8.642;2022-12-01T13:38:23;1.83;;;1.50;;
16403;SDS011;8311;50.158;8.642;2022-12-01T13:41:23;2.80;;;1.80;;
16403;SDS011;8311;50.158;8.642;2022-12-01T13:44:21;2.92;;;1.52;;
16403;SDS011;8311;50.158;8.642;2022-12-01T13:47:30;2.72;;;1.48;;
16403;SDS011;8311;50.158;8.642;2022-12-01T13:53:54;2.28;;;1.52;;
16403;SDS011;8311;50.158;8.642;2022-12-01T13:56:57;2.38;;;1.33;;
16403;SDS011;8311;50.158;8.642;2022-12-01T14:00:04;2.50;;;1.60;;
16403;SDS011;8311;50.158;8.642;2022-12-01T14:03:36;3.03;;;1.83;;
16403;SDS011;8311;50.158;8.642;2022-12-01T14:06:35;1.90;;;1.30;;
16403;SDS011;8311;50.158;8.642;2022-12-01T14:09:32;1.92;;;1.30;;
16403;SDS011;8311;50.158;8.642;2022-12-01T14:12:28;1.42;;;1.20;;
16403;SDS011;8311;50.158;8.642;2022-12-01T14:15:29;2.25;;;1.30;;
16403;SDS011;8311;50.158;8.642;2022-12-01T14:18:33;2.15;;;1.48;;
16403;SDS011;8311;50.158;8.642;2022-12-01T14:21:40;2.53;;;1.80;;
16403;SDS011;8311;50.158;8.642;2022-12-01T14:24:38;1.70;;;1.35;;
16403;SDS011;8311;50.158;8.642;2022-12-01T14:27:35;2.35;;;1.45;;
16403;SDS011;8311;50.158;8.642;2022-12-01T14:33:58;2.08;;;1.40;;
16403;SDS011;8311;50.158;8.642;2022-12-01T14:36:54;1.92;;;1.50;;
16403;SDS011;8311;50.158;8.642;2022-12-01T14:39:55;1.70;;;1.40;;
16403;SDS011;8311;50.158;8.642;2022-12-01T14:42:50;1.77;;;1.38;;
16403;SDS011;8311;50.158;8.642;2022-12-01T14:46:05;2.97;;;1.60;;
16403;SDS011;8311;50.158;8.642;2022-12-01T14:49:02;2.22;;;1.50;;
16403;SDS011;8311;50.158;8.642;2022-12-01T14:51:57;2.33;;;1.58;;
16403;SDS011;8311;50.158;8.642;2022-12-01T14:54:56;2.78;;;1.58;;
16403;SDS011;8311;50.158;8.642;2022-12-01T14:57:52;2.13;;;1.50;;
16403;SDS011;8311;50.158;8.642;2022-12-01T15:01:03;2.50;;;1.42;;
16403;SDS011;8311;50.158;8.642;2022-12-01T15:04:00;2.35;;;1.20;;
16403;SDS011;8311;50.158;8.642;2022-12-01T15:06:56;2.10;;;1.48;;
16403;SDS011;8311;50.158;8.642;2022-12-01T15:09:59;2.13;;;1.40;;
16403;SDS011;8311;50.158;8.642;2022-12-01T15:12:54;2.20;;;1.48;;
16403;SDS011;8311;50.158;8.642;2022-12-01T15:15:49;2.38;;;1.70;;
16403;SDS011;8311;50.158;8.642;2022-12-01T15:18:43;1.90;;;1.30;;
16403;SDS011;8311;50.158;8.642;2022-12-01T15:21:37;2.03;;;1.40;;
16403;SDS011;8311;50.158;8.642;2022-12-01T15:24:31;1.98;;;1.50;;
16403;SDS011;8311;50.158;8.642;2022-12-01T15:27:25;2.80;;;1.60;;
16403;SDS011;8311;50.158;8.642;2022-12-01T15:30:20;2.90;;;1.67;;
16403;SDS011;8311;50.158;8.642;2022-12-01T15:33:14;1.90;;;1.38;;
16403;SDS011;8311;50.158;8.642;2022-12-01T15:36:18;3.03;;;1.75;;
16403;SDS011;8311;50.158;8.642;2022-12-01T15:39:12;1.80;;;1.38;;
16403;SDS011;8311;50.158;8.642;2022-12-01T15:42:16;2.40;;;1.30;;
16403;SDS011;8311;50.158;8.642;2022-12-01T15:45:16;2.38;;;1.40;;
16403;SDS011;8311;50.158;8.642;2022-12-01T15:48:14;1.98;;;1.50;;
16403;SDS011;8311;50.158;8.642;2022-12-01T15:51:10;1.83;;;1.40;;
16403;SDS011;8311;50.158;8.642;2022-12-01T15:54:11;1.98;;;1.55;;
16403;SDS011;8311;50.158;8.642;2022-12-01T15:57:11;2.03;;;1.30;;
16403;SDS011;8311;50.158;8.642;2022-12-01T16:00:16;2.22;;;1.60;;
16403;SDS011;8311;50.158;8.642;2022-12-01T16:03:11;1.48;;;1.38;;
16403;SDS011;8311;50.158;8.642;2022-12-01T16:06:09;2.05;;;1.60;;
16403;SDS011;8311;50.158;8.642;2022-12-01T16:09:04;2.63;;;1.48;;
16403;SDS011;8311;50.158;8.642;2022-12-01T16:12:05;2.28;;;1.50;;
16403;SDS011;8311;50.158;8.642;2022-12-01T16:15:13;1.85;;;1.25;;
16403;SDS011;8311;50.158;8.642;2022-12-01T16:18:21;1.77;;;1.40;;
16403;SDS011;8311;50.158;8.642;2022-12-01T16:21:20;2.00;;;1.27;;
16403;SDS011;8311;50.158;8.642;2022-12-01T16:24:14;2.72;;;1.60;;
16403;SDS011;8311;50.158;8.642;2022-12-01T16:27:15;2.20;;;1.15;;
16403;SDS011;8311;50.158;8.642;2022-12-01T16:30:18;2.60;;;1.70;;
16403;SDS011;8311;50.158;8.642;2022-12-01T16:33:14;2.28;;;1.35;;
16403;SDS011;8311;50.158;8.642;2022-12-01T16:36:09;1.90;;;1.60;;
16403;SDS011;8311;50.158;8.642;2022-12-01T16:39:05;2.35;;;1.48;;
16403;SDS011;8311;50.158;8.642;2022-12-01T16:41:59;2.30;;;1.50;;
16403;SDS011;8311;50.158;8.642;2022-12-01T16:44:54;2.03;;;1.40;;
16403;SDS011;8311;50.158;8.642;2022-12-01T16:47:48;1.88;;;1.30;;
16403;SDS011;8311;50.158;8.642;2022-12-01T16:50:42;3.53;;;1.52;;
16403;SDS011;8311;50.158;8.642;2022-12-01T16:53:35;2.47;;;1.70;;
16403;SDS011;8311;50.158;8.642;2022-12-01T16:56:28;4.57;;;1.55;;
16403;SDS011;8311;50.158;8.642;2022-12-01T16:59:21;1.50;;;1.27;;
16403;SDS011;8311;50.158;8.642;2022-12-01T17:02:15;1.90;;;1.30;;
16403;SDS011;8311;50.158;8.642;2022-12-01T17:05:09;2.03;;;1.50;;
16403;SDS011;8311;50.158;8.642;2022-12-01T17:08:03;2.72;;;1.60;;
16403;SDS011;8311;50.158;8.642;2022-12-01T17:10:57;2.53;;;1.60;;
16403;SDS011;8311;50.158;8.642;2022-12-01T17:13:51;1.33;;;1.00;;
16403;SDS011;8311;50.158;8.642;2022-12-01T17:16:45;2.50;;;1.63;;
16403;SDS011;8311;50.158;8.642;2022-12-01T17:19:39;2.25;;;1.42;;
16403;SDS011;8311;50.158;8.642;2022-12-01T17:22:33;1.90;;;1.48;;
16403;SDS011;8311;50.158;8.642;2022-12-01T17:25:26;2.00;;;1.25;;
16403;SDS011;8311;50.158;8.642;2022-12-01T17:28:20;2.88;;;1.65;;
16403;SDS011;8311;50.158;8.642;2022-12-01T17:31:14;2.75;;;1.85;;
16403;SDS011;8311;50.158;8.642;2022-12-01T17:34:08;2.25;;;1.77;;
16403;SDS011;8311;50.158;8.642;2022-12-01T17:37:02;2.17;;;1.38;;
16403;SDS011;8311;50.158;8.642;2022-12-01T17:39:56;1.92;;;1.40;;
16403;SDS011;8311;50.158;8.642;2022-12-01T17:42:49;2.83;;;1.52;;
16403;SDS011;8311;50.158;8.642;2022-12-01T17:45:42;2.90;;;1.50;;
16403;SDS011;8311;50.158;8.642;2022-12-01T17:48:35;2.20;;;1.50;;
16403;SDS011;8311;50.158;8.642;2022-12-01T17:51:28;2.85;;;1.80;;
16403;SDS011;8311;50.158;8.642;2022-12-01T17:54:23;2.13;;;1.50;;
16403;SDS011;8311;50.158;8.642;2022-12-01T17:57:17;2.97;;;1.67;;
16403;SDS011;8311;50.158;8.642;2022-12-01T18:00:11;2.42;;;1.33;;
16403;SDS011;8311;50.158;8.642;2022-12-01T18:03:06;2.83;;;1.60;;
16403;SDS011;8311;50.158;8.642;2022-12-01T18:05:59;2.45;;;1.40;;
16403;SDS011;8311;50.158;8.642;2022-12-01T18:08:53;3.15;;;1.80;;
16403;SDS011;8311;50.158;8.642;2022-12-01T18:11:50;3.47;;;1.70;;
16403;SDS011;8311;50.158;8.642;2022-12-01T18:14:45;2.67;;;1.70;;